Time;durP1;ratioP1;P1;durP2;ratioP2;P2;SDS_P1;SDS_P2;PMS_P1;PMS_P2;Temp;Humidity;BMP_temperature;BMP_pressure;BME280_temperature;BME280_humidity;BME280_pressure;Samples;Min_cycle;Max_cycle;Signal;HPM_P1;HPM_P2
2022/04/04 00:00:11;;;;;;;6.45;1.50;;;21.50;89.40;;;;;;5031867;28;20405;-87
2022/04/04 00:02:38;;;;;;;6.75;1.58;;;21.70;85.70;;;;;;5013970;28;20492;-90
2022/04/04 00:05:06;;;;;;;3.33;1.45;;;21.70;84.40;;;;;;5031416;28;20413;-90
2022/04/04 00:07:33;;;;;;;4.45;1.30;;;21.90;82.70;;;;;;5031127;28;20377;-92
2022/04/04 00:10:01;;;;;;;3.78;1.50;;;22.00;80.60;;;;;;5031573;28;20432;-86
2022/04/04 00:12:28;;;;;;;4.00;1.30;;;22.10;77.20;;;;;;5032003;28;20393;-89
2022/04/04 00:14:55;;;;;;;2.37;1.43;;;22.20;76.50;;;;;;5031875;28;20417;-86
2022/04/04 00:17:22;;;;;;;3.00;1.23;;;22.30;76.70;;;;;;5031808;28;20392;-84
2022/04/04 00:19:50;;;;;;;2.90;1.20;;;22.50;78.00;;;;;;5032055;28;20927;-91
2022/04/04 00:22:17;;;;;;;4.80;1.35;;;22.60;75.10;;;;;;5031866;28;20584;-90
2022/04/04 00:24:44;;;;;;;3.70;1.27;;;22.80;72.30;;;;;;5031389;28;20378;-89
2022/04/04 00:27:11;;;;;;;7.80;1.40;;;23.00;74.40;;;;;;5031341;28;20385;-90
2022/04/04 00:29:38;;;;;;;5.15;1.27;;;23.10;78.50;;;;;;5030897;28;20765;-91
2022/04/04 00:32:05;;;;;;;2.65;1.30;;;23.30;78.40;;;;;;5031096;28;20385;-87
2022/04/04 00:34:32;;;;;;;4.33;1.30;;;23.60;75.70;;;;;;5031114;28;20382;-88
2022/04/04 00:36:59;;;;;;;6.93;1.95;;;23.80;73.10;;;;;;5030922;28;20388;-87
2022/04/04 00:39:26;;;;;;;4.03;1.63;;;23.80;71.30;;;;;;5031627;28;20405;-93
2022/04/04 00:41:53;;;;;;;2.75;1.40;;;23.80;72.20;;;;;;5031285;28;20404;-90
2022/04/04 00:44:21;;;;;;;4.30;2.15;;;23.80;71.50;;;;;;5012678;28;20397;-89
2022/04/04 00:46:49;;;;;;;5.10;1.50;;;23.80;72.00;;;;;;5030983;28;20385;-92
2022/04/04 00:49:16;;;;;;;4.75;1.20;;;23.70;72.40;;;;;;5031676;28;20374;-88
2022/04/04 00:51:43;;;;;;;3.60;1.70;;;23.80;69.70;;;;;;5030972;28;20374;-86
2022/04/04 00:54:10;;;;;;;3.92;1.20;;;23.80;67.60;;;;;;5030966;28;20453;-89
2022/04/04 00:56:38;;;;;;;3.25;1.40;;;23.80;70.00;;;;;;5030763;28;20405;-88
2022/04/04 00:59:07;;;;;;;5.85;1.30;;;23.80;68.30;;;;;;5034432;28;20715;-87
2022/04/04 01:01:34;;;;;;;2.40;1.10;;;24.00;69.20;;;;;;5044232;28;20464;-81
2022/04/04 01:04:01;;;;;;;4.77;1.30;;;24.20;68.80;;;;;;5042465;28;20441;-86
2022/04/04 01:06:28;;;;;;;2.87;1.10;;;24.30;67.80;;;;;;5045355;28;20377;-84
2022/04/04 01:08:55;;;;;;;3.13;1.20;;;24.50;67.60;;;;;;5032649;28;20428;-88
2022/04/04 01:11:23;;;;;;;3.92;1.20;;;24.30;65.50;;;;;;5030130;28;20376;-85
2022/04/04 01:13:50;;;;;;;4.03;1.17;;;24.30;63.70;;;;;;5029911;28;20405;-90
2022/04/04 01:16:18;;;;;;;2.28;1.38;;;24.20;63.00;;;;;;5029676;28;20369;-88
2022/04/04 01:18:45;;;;;;;3.00;1.45;;;24.30;63.40;;;;;;5029971;28;20382;-85
2022/04/04 01:21:12;;;;;;;2.67;1.20;;;24.60;64.10;;;;;;5030130;28;20412;-87
2022/04/04 01:23:43;;;;;;;2.53;1.20;;;24.90;61.40;;;;;;5029180;28;20407;-87
2022/04/04 01:26:12;;;;;;;6.63;1.30;;;24.90;61.70;;;;;;5029482;28;20381;-85
2022/04/04 01:28:40;;;;;;;3.28;1.23;;;25.00;63.30;;;;;;5029592;28;20373;-88
2022/04/04 01:31:07;;;;;;;2.05;1.23;;;25.10;62.40;;;;;;5029442;28;20394;-85
2022/04/04 01:33:35;;;;;;;5.00;1.10;;;25.40;60.60;;;;;;5029107;28;20399;-84
2022/04/04 01:36:02;;;;;;;2.92;1.10;;;25.70;58.50;;;;;;5031555;28;20463;-84
2022/04/04 01:38:29;;;;;;;3.83;1.30;;;26.00;59.00;;;;;;5028989;28;20436;-88
2022/04/04 01:40:56;;;;;;;3.22;1.13;;;26.40;57.60;;;;;;5011471;28;20405;-89
2022/04/04 01:43:23;;;;;;;6.45;1.27;;;26.80;55.40;;;;;;5028797;28;20865;-87
2022/04/04 01:48:39;;;;;;;2.28;1.08;;;27.70;54.90;;;;;;5029510;28;20377;-86
2022/04/04 01:51:06;;;;;;;3.10;1.10;;;27.80;54.40;;;;;;5029075;28;20846;-84
2022/04/04 01:53:33;;;;;;;3.00;1.10;;;27.90;53.50;;;;;;5029192;28;20397;-88
2022/04/04 01:56:04;;;;;;;1.92;1.00;;;28.40;53.30;;;;;;5029362;28;20377;-86
2022/04/04 01:58:32;;;;;;;2.75;1.08;;;28.60;52.50;;;;;;5029382;28;20365;-86
2022/04/04 02:01:01;;;;;;;3.47;1.30;;;28.80;51.00;;;;;;5030124;28;20397;-87
2022/04/04 02:03:29;;;;;;;3.83;1.17;;;29.40;50.60;;;;;;5013147;28;20404;-90
2022/04/04 02:05:56;;;;;;;3.90;1.02;;;29.80;50.00;;;;;;5035609;28;20901;-85
2022/04/04 02:08:23;;;;;;;4.47;1.13;;;30.30;49.30;;;;;;5025937;28;20383;-83
2022/04/04 02:10:50;;;;;;;3.08;1.30;;;29.40;49.40;;;;;;5045487;28;20377;-87
2022/04/04 02:13:17;;;;;;;3.88;1.20;;;29.80;49.40;;;;;;5045944;28;20389;-83
2022/04/04 02:15:44;;;;;;;3.00;1.05;;;30.10;48.60;;;;;;5049247;28;20374;-85
2022/04/04 02:18:11;;;;;;;2.70;1.40;;;29.60;50.00;;;;;;5050153;28;20380;-85
2022/04/04 02:20:38;;;;;;;3.25;1.02;;;29.80;48.10;;;;;;5049112;28;20399;-82
2022/04/04 02:23:05;;;;;;;4.67;1.17;;;29.90;46.10;;;;;;5048359;28;20423;-81
2022/04/04 02:25:32;;;;;;;3.63;1.10;;;29.80;47.20;;;;;;5047958;28;20388;-84
2022/04/04 02:27:59;;;;;;;2.33;1.20;;;30.40;47.90;;;;;;5034078;28;20386;-89
2022/04/04 02:30:26;;;;;;;3.45;1.08;;;31.50;46.50;;;;;;5030440;28;20384;-89
2022/04/04 02:32:53;;;;;;;2.22;1.02;;;32.00;45.40;;;;;;5029864;28;20366;-87
2022/04/04 02:35:21;;;;;;;6.32;1.20;;;32.50;45.10;;;;;;5029939;28;20457;-92
2022/04/04 02:37:48;;;;;;;2.30;1.00;;;31.80;45.20;;;;;;5029916;28;20369;-90
2022/04/04 02:40:15;;;;;;;3.03;1.10;;;32.00;44.70;;;;;;5029592;28;20479;-91
2022/04/04 02:42:42;;;;;;;1.98;1.00;;;32.70;43.50;;;;;;5028900;28;20742;-88
2022/04/04 02:45:09;;;;;;;2.00;1.10;;;33.30;43.00;;;;;;5028637;28;20377;-84
2022/04/04 02:47:36;;;;;;;1.80;0.90;;;34.00;41.00;;;;;;5028820;28;20713;-86
2022/04/04 02:50:04;;;;;;;2.83;1.10;;;33.70;41.50;;;;;;5011216;28;20731;-92
2022/04/04 02:52:31;;;;;;;3.83;1.10;;;33.00;41.60;;;;;;5029238;28;20555;-87
2022/04/04 02:56:28;;;;;;;2.50;1.10;;;32.60;43.20;;;;;;5029153;28;20504;-90
2022/04/04 02:57:48;;;;;;;4.00;1.10;;;32.70;44.00;;;;;;5028962;28;20374;-87
2022/04/04 03:00:18;;;;;;;2.10;1.00;;;33.30;42.00;;;;;;5028932;28;20784;-87
2022/04/04 03:02:47;;;;;;;2.47;1.02;;;33.60;40.60;;;;;;5030127;28;20457;-84
2022/04/04 03:05:14;;;;;;;2.55;1.00;;;32.90;41.10;;;;;;5032855;28;20381;-86
2022/04/04 03:07:42;;;;;;;4.40;1.10;;;33.20;40.80;;;;;;5044785;28;20370;-87
2022/04/04 03:10:10;;;;;;;3.05;1.00;;;33.10;39.50;;;;;;5035424;28;20409;-91
2022/04/04 03:12:45;;;;;;;3.67;1.10;;;32.90;40.30;;;;;;5028688;28;20441;-87
2022/04/04 03:15:22;;;;;;;2.30;1.10;;;32.60;39.90;;;;;;5028883;28;20381;-86
2022/04/04 03:17:54;;;;;;;1.83;0.98;;;33.10;40.20;;;;;;5029074;28;20373;-88
2022/04/04 03:20:22;;;;;;;2.22;0.90;;;33.80;39.50;;;;;;5029690;28;20481;-89
2022/04/04 03:22:56;;;;;;;2.30;1.10;;;34.90;38.00;;;;;;5029544;28;20386;-89
2022/04/04 03:25:23;;;;;;;2.78;1.00;;;34.80;37.80;;;;;;5029087;28;20424;-89
2022/04/04 03:27:51;;;;;;;2.72;1.00;;;33.50;38.50;;;;;;5028199;28;20376;-89
2022/04/04 03:30:25;;;;;;;2.90;1.25;;;33.50;38.20;;;;;;5031728;28;20772;-91
2022/04/04 03:32:59;;;;;;;3.47;1.20;;;34.20;37.70;;;;;;5031930;28;20508;-89
2022/04/04 03:35:29;;;;;;;2.72;1.00;;;33.40;38.50;;;;;;5031608;28;20369;-87
2022/04/04 03:37:59;;;;;;;2.60;0.90;;;34.40;38.40;;;;;;5032002;28;20377;-94
2022/04/04 03:40:28;;;;;;;3.75;1.00;;;34.10;37.60;;;;;;5031897;28;20389;-90
2022/04/04 03:42:56;;;;;;;3.15;0.93;;;33.20;38.70;;;;;;5031646;28;20388;-87
2022/04/04 03:45:26;;;;;;;3.30;0.90;;;33.90;38.20;;;;;;5032643;28;20381;-89
2022/04/04 03:47:53;;;;;;;2.85;1.00;;;34.30;37.20;;;;;;5031525;28;20397;-85
2022/04/04 03:50:21;;;;;;;1.95;0.90;;;35.20;36.30;;;;;;5013968;28;20435;-86
2022/04/04 03:52:53;;;;;;;3.78;0.80;;;34.60;37.30;;;;;;5031132;28;20413;-87
2022/04/04 03:55:31;;;;;;;2.27;0.80;;;33.20;38.80;;;;;;5031733;28;20456;-89
2022/04/04 03:58:00;;;;;;;3.90;1.02;;;32.60;39.20;;;;;;5031329;28;20834;-87
2022/04/04 04:00:27;;;;;;;5.40;0.82;;;32.90;39.70;;;;;;5031240;28;20398;-89
2022/04/04 04:02:54;;;;;;;3.20;1.05;;;31.90;38.60;;;;;;5031300;28;20485;-92
2022/04/04 04:05:22;;;;;;;3.22;1.00;;;31.50;41.10;;;;;;5031235;28;20444;-93
2022/04/04 04:07:50;;;;;;;2.53;0.90;;;32.10;38.50;;;;;;5031855;28;20473;-89
2022/04/04 04:10:17;;;;;;;2.35;1.00;;;31.70;40.80;;;;;;5034203;28;20377;-85
2022/04/04 04:12:45;;;;;;;3.58;0.90;;;31.80;40.70;;;;;;5043021;28;20374;-88
2022/04/04 04:15:23;;;;;;;2.67;0.90;;;32.60;39.40;;;;;;5037363;28;20384;-84
2022/04/04 04:17:52;;;;;;;1.50;0.88;;;32.60;39.00;;;;;;5032487;28;20378;-91
2022/04/04 04:20:23;;;;;;;2.07;0.80;;;32.90;38.60;;;;;;5038013;28;20393;-88
2022/04/04 04:22:57;;;;;;;3.55;0.90;;;32.70;37.70;;;;;;5050916;28;20382;-87
2022/04/04 04:25:30;;;;;;;3.10;0.98;;;32.10;37.20;;;;;;5042414;28;20788;-90
2022/04/04 04:28:00;;;;;;;1.95;0.88;;;32.20;38.50;;;;;;5014514;28;20377;-94
2022/04/04 04:30:28;;;;;;;1.38;0.88;;;32.10;39.40;;;;;;5031284;28;20366;-86
2022/04/04 04:32:56;;;;;;;6.53;1.00;;;31.90;37.50;;;;;;5031418;28;20461;-88
2022/04/04 04:35:24;;;;;;;2.45;0.82;;;32.00;36.70;;;;;;5031224;28;20377;-88
2022/04/04 04:37:51;;;;;;;4.03;0.90;;;31.50;37.90;;;;;;5031880;28;20854;-89
2022/04/04 04:40:19;;;;;;;1.70;0.77;;;31.10;36.50;;;;;;5012951;28;20844;-85
2022/04/04 04:42:48;;;;;;;2.35;0.73;;;31.10;37.50;;;;;;5031259;28;20401;-89
2022/04/04 04:45:15;;;;;;;1.38;0.80;;;31.40;36.90;;;;;;5031093;28;20374;-89
2022/04/04 04:47:42;;;;;;;1.17;0.60;;;31.60;36.90;;;;;;5013174;28;20381;-87
2022/04/04 04:50:10;;;;;;;4.53;0.80;;;32.30;36.60;;;;;;5031136;28;20756;-90
2022/04/04 04:52:39;;;;;;;1.17;0.70;;;32.60;36.20;;;;;;5031034;28;20373;-88
2022/04/04 04:55:06;;;;;;;2.92;0.80;;;32.40;35.60;;;;;;5031006;28;20381;-90
2022/04/04 04:57:34;;;;;;;2.10;0.90;;;31.60;36.20;;;;;;5030522;28;20397;-90
2022/04/04 05:00:05;;;;;;;2.47;0.90;;;31.50;36.60;;;;;;5030759;28;20845;-88
2022/04/04 05:02:34;;;;;;;2.60;0.85;;;32.00;35.90;;;;;;5030342;28;20866;-88
2022/04/04 05:05:01;;;;;;;2.03;0.70;;;32.10;36.90;;;;;;5013113;28;20437;-88
2022/04/04 05:07:28;;;;;;;1.33;0.75;;;32.60;35.70;;;;;;5030602;28;20377;-88
2022/04/04 05:09:55;;;;;;;2.30;0.80;;;32.10;35.60;;;;;;5012781;28;20378;-93
2022/04/04 05:12:22;;;;;;;1.20;0.60;;;32.10;35.80;;;;;;5012448;28;20389;-88
2022/04/04 05:14:49;;;;;;;2.53;0.73;;;32.30;35.90;;;;;;5030284;28;20864;-90
2022/04/04 05:17:16;;;;;;;4.47;0.70;;;32.10;37.50;;;;;;5030715;28;20502;-89
2022/04/04 05:19:43;;;;;;;3.53;1.10;;;32.10;35.20;;;;;;5030252;28;20421;-92
2022/04/04 05:22:14;;;;;;;3.47;0.88;;;32.50;35.90;;;;;;5012885;28;20430;-94
2022/04/04 05:24:41;;;;;;;1.83;0.70;;;32.10;37.00;;;;;;5030274;28;20770;-87
2022/04/04 05:27:09;;;;;;;1.98;0.80;;;32.30;35.40;;;;;;5030551;28;20390;-91
2022/04/04 05:29:36;;;;;;;1.87;0.73;;;31.30;36.70;;;;;;5032852;28;20453;-92
2022/04/04 05:32:04;;;;;;;2.88;0.80;;;30.50;38.10;;;;;;5032637;28;20374;-90
2022/04/04 05:34:31;;;;;;;1.97;0.80;;;30.50;37.40;;;;;;5013124;28;20409;-90
2022/04/04 05:36:58;;;;;;;2.08;0.70;;;31.20;37.90;;;;;;5013666;28;20415;-88
2022/04/04 05:39:25;;;;;;;2.10;0.85;;;31.50;37.80;;;;;;5030374;28;20386;-91
2022/04/04 05:41:52;;;;;;;3.00;0.90;;;31.80;38.10;;;;;;5029632;28;20409;-90
2022/04/04 05:44:19;;;;;;;2.10;0.70;;;31.70;37.40;;;;;;5029580;28;20782;-88
2022/04/04 05:46:47;;;;;;;4.90;0.90;;;31.60;38.20;;;;;;5029893;28;20401;-91
2022/04/04 05:49:14;;;;;;;3.47;0.83;;;31.40;38.40;;;;;;5029846;28;20392;-91
2022/04/04 05:51:41;;;;;;;3.17;0.90;;;31.90;37.30;;;;;;5011578;28;20444;-90
2022/04/04 05:54:09;;;;;;;3.92;0.90;;;31.40;37.60;;;;;;5030079;28;20388;-89
2022/04/04 05:56:37;;;;;;;3.65;1.00;;;31.00;37.50;;;;;;5030623;28;20768;-88
2022/04/04 05:59:05;;;;;;;4.38;0.90;;;31.20;38.20;;;;;;5012209;28;20404;-89
2022/04/04 06:01:32;;;;;;;7.57;1.10;;;31.70;38.00;;;;;;5029627;28;20833;-92
2022/04/04 06:03:59;;;;;;;7.45;1.15;;;31.30;38.10;;;;;;5029791;28;20871;-90
2022/04/04 06:06:26;;;;;;;12.45;1.30;;;31.30;38.60;;;;;;5029986;28;20881;-90
2022/04/04 06:08:53;;;;;;;7.25;1.10;;;31.90;36.80;;;;;;5014679;28;20381;-91
2022/04/04 06:11:20;;;;;;;7.47;1.10;;;31.80;36.40;;;;;;5030916;28;20397;-93
2022/04/04 06:13:47;;;;;;;3.88;0.90;;;31.50;37.70;;;;;;5030161;28;20377;-88
2022/04/04 06:16:14;;;;;;;5.65;0.90;;;31.30;36.90;;;;;;5030823;28;20392;-89
2022/04/04 06:18:43;;;;;;;8.68;1.00;;;31.20;37.50;;;;;;5031142;28;20391;-94
2022/04/04 06:21:10;;;;;;;6.63;1.02;;;30.50;37.30;;;;;;5029327;28;20881;-92
2022/04/04 06:23:37;;;;;;;5.30;0.90;;;29.40;38.50;;;;;;5012053;28;20908;-85
2022/04/04 06:26:05;;;;;;;5.80;1.00;;;28.90;40.40;;;;;;5012009;28;20389;-92
2022/04/04 06:28:34;;;;;;;5.80;0.95;;;28.60;40.60;;;;;;5029135;28;20444;-90
2022/04/04 06:31:03;;;;;;;9.30;1.13;;;28.40;41.50;;;;;;5029772;28;20380;-88
2022/04/04 06:33:31;;;;;;;2.50;0.77;;;28.10;41.80;;;;;;5029552;28;20385;-89
2022/04/04 06:35:58;;;;;;;1.75;0.70;;;28.10;42.30;;;;;;5029042;28;20492;-87
2022/04/04 06:38:25;;;;;;;3.00;0.80;;;28.20;40.50;;;;;;5029137;28;20891;-88
2022/04/04 06:40:52;;;;;;;4.23;0.87;;;28.00;40.10;;;;;;5031199;28;20429;-87
2022/04/04 06:43:20;;;;;;;2.05;0.80;;;27.80;41.40;;;;;;5030622;28;20457;-85
2022/04/04 06:45:47;;;;;;;2.78;0.70;;;27.70;41.60;;;;;;5041605;28;20381;-88
2022/04/04 06:48:14;;;;;;;3.08;0.80;;;27.50;41.20;;;;;;5037203;28;20385;-93
2022/04/04 06:50:42;;;;;;;3.03;0.90;;;27.40;41.20;;;;;;5029114;28;20460;-84
2022/04/04 06:53:10;;;;;;;3.00;1.00;;;27.40;41.80;;;;;;5029344;28;20382;-83
2022/04/04 06:55:38;;;;;;;2.70;0.90;;;27.40;42.30;;;;;;5028662;28;20369;-86
2022/04/04 06:58:05;;;;;;;4.38;0.90;;;27.40;42.30;;;;;;5028497;28;20381;-87
2022/04/04 07:00:32;;;;;;;3.95;1.00;;;27.20;42.60;;;;;;5028373;28;20902;-90
2022/04/04 07:02:59;;;;;;;5.13;1.00;;;27.10;42.70;;;;;;5012329;28;20860;-87
2022/04/04 07:05:26;;;;;;;3.47;0.98;;;27.00;43.00;;;;;;5032173;28;20805;-83
2022/04/04 07:07:53;;;;;;;4.85;1.00;;;26.80;43.40;;;;;;5032213;28;20385;-89
2022/04/04 07:10:23;;;;;;;5.20;0.90;;;26.50;43.10;;;;;;5032289;28;20392;-83
2022/04/04 07:12:50;;;;;;;5.28;0.90;;;26.30;43.50;;;;;;5034126;28;20424;-78
2022/04/04 07:15:17;;;;;;;6.50;1.08;;;26.20;43.50;;;;;;5040843;28;20460;-89
2022/04/04 07:17:45;;;;;;;2.17;1.00;;;26.10;43.80;;;;;;5032752;28;20370;-87
2022/04/04 07:20:13;;;;;;;4.73;1.13;;;26.00;44.70;;;;;;5031887;28;20374;-84
2022/04/04 07:22:44;;;;;;;5.30;1.08;;;26.00;44.90;;;;;;5032457;28;20373;-88
2022/04/04 07:25:14;;;;;;;4.50;0.90;;;26.00;44.90;;;;;;5031645;28;20382;-81
2022/04/04 07:27:43;;;;;;;4.47;1.10;;;25.80;44.40;;;;;;5031826;28;20420;-82
2022/04/04 07:30:19;;;;;;;3.30;0.80;;;25.90;45.40;;;;;;5013734;28;20377;-82
2022/04/04 07:32:50;;;;;;;6.10;0.93;;;25.90;45.30;;;;;;5031544;28;20445;-82
2022/04/04 07:35:19;;;;;;;3.63;0.95;;;25.80;45.50;;;;;;5032516;28;20373;-86
2022/04/04 07:37:49;;;;;;;5.50;1.30;;;25.60;45.70;;;;;;5031968;28;20385;-85
2022/04/04 07:40:18;;;;;;;8.07;1.30;;;25.50;46.10;;;;;;5031730;28;20431;-83
2022/04/04 07:42:46;;;;;;;6.43;1.30;;;25.30;46.40;;;;;;5031070;28;20378;-83
2022/04/04 07:45:15;;;;;;;8.23;1.50;;;25.00;47.20;;;;;;5032693;28;20764;-85
2022/04/04 07:47:43;;;;;;;4.95;1.40;;;24.70;47.60;;;;;;5035264;28;20458;-83
2022/04/04 07:50:13;;;;;;;10.75;1.63;;;24.40;48.70;;;;;;5014501;28;20414;-83
2022/04/04 07:52:40;;;;;;;5.40;1.20;;;24.20;49.30;;;;;;5031208;28;20448;-86
2022/04/04 07:55:09;;;;;;;4.15;1.38;;;23.90;49.70;;;;;;5032254;28;20381;-87
2022/04/04 07:57:39;;;;;;;7.97;1.70;;;23.70;50.50;;;;;;5031234;28;20382;-88
2022/04/04 08:00:08;;;;;;;10.98;1.95;;;23.50;51.20;;;;;;5032307;28;20404;-87
2022/04/04 08:02:35;;;;;;;8.33;1.77;;;23.40;51.90;;;;;;5014828;28;20862;-85
2022/04/04 08:05:04;;;;;;;11.80;1.95;;;23.20;52.90;;;;;;5031300;28;20463;-87
2022/04/04 08:07:31;;;;;;;12.13;1.70;;;23.00;52.60;;;;;;5031034;28;20389;-86
2022/04/04 08:09:58;;;;;;;9.63;1.67;;;22.90;53.00;;;;;;5031106;28;20403;-83
2022/04/04 08:12:29;;;;;;;8.23;1.73;;;22.80;53.40;;;;;;5030825;28;20838;-85
2022/04/04 08:14:56;;;;;;;12.88;1.90;;;22.80;53.10;;;;;;5030090;28;20928;-86
2022/04/04 08:17:23;;;;;;;10.35;1.60;;;22.80;53.20;;;;;;5031050;28;20400;-87
2022/04/04 08:19:50;;;;;;;14.43;2.13;;;22.70;53.70;;;;;;5030761;28;20386;-85
2022/04/04 08:22:18;;;;;;;29.55;3.53;;;22.50;54.60;;;;;;5030615;28;20735;-83
2022/04/04 08:24:45;;;;;;;37.13;3.63;;;22.40;54.70;;;;;;5030808;28;20405;-85
2022/04/04 08:27:13;;;;;;;23.48;3.03;;;22.20;55.20;;;;;;5030948;28;20377;-87
2022/04/04 08:29:40;;;;;;;20.27;2.65;;;22.00;55.50;;;;;;5030512;28;20408;-87
2022/04/04 08:32:07;;;;;;;31.67;2.60;;;21.90;56.30;;;;;;5030904;28;20940;-86
2022/04/04 08:34:34;;;;;;;15.63;2.47;;;21.80;56.40;;;;;;5030682;28;20389;-87
2022/04/04 08:37:01;;;;;;;15.93;2.33;;;21.80;56.80;;;;;;5030839;28;20468;-88
2022/04/04 08:39:29;;;;;;;16.17;2.30;;;21.70;56.90;;;;;;5030732;28;20373;-88
2022/04/04 08:41:56;;;;;;;8.95;2.10;;;21.60;57.30;;;;;;5030514;28;20405;-87
2022/04/04 08:44:24;;;;;;;17.02;2.47;;;21.60;57.30;;;;;;5030666;28;20394;-88
2022/04/04 08:46:52;;;;;;;9.07;2.15;;;21.60;57.20;;;;;;5030621;28;20519;-82
2022/04/04 08:49:19;;;;;;;10.07;2.10;;;21.50;57.70;;;;;;5030260;28;20377;-85
2022/04/04 08:51:49;;;;;;;11.98;2.03;;;21.50;57.80;;;;;;5030663;28;20386;-86
2022/04/04 08:54:16;;;;;;;13.00;2.33;;;21.50;58.00;;;;;;5030487;28;20378;-84
2022/04/04 08:56:43;;;;;;;11.70;2.00;;;21.50;57.90;;;;;;5030313;28;20377;-83
2022/04/04 08:59:10;;;;;;;15.70;2.20;;;21.50;58.10;;;;;;5030030;28;20373;-82
2022/04/04 09:01:37;;;;;;;14.10;2.08;;;21.40;58.20;;;;;;5029947;28;20400;-83
2022/04/04 09:04:04;;;;;;;12.48;1.85;;;21.40;58.70;;;;;;5029864;28;20392;-83
2022/04/04 09:06:45;;;;;;;10.93;1.90;;;21.30;58.70;;;;;;5030031;28;20411;-83
2022/04/04 09:09:17;;;;;;;9.90;1.77;;;21.30;58.80;;;;;;5029734;28;20365;-83
2022/04/04 09:11:55;;;;;;;10.10;2.10;;;21.40;59.30;;;;;;5029721;28;20464;-82
2022/04/04 09:14:24;;;;;;;14.20;2.15;;;21.60;58.80;;;;;;5011879;28;20377;-86
2022/04/04 09:16:55;;;;;;;10.60;2.50;;;21.70;58.40;;;;;;5029565;28;20389;-83
2022/04/04 09:19:32;;;;;;;16.80;2.70;;;21.60;58.40;;;;;;5029669;28;20484;-85
2022/04/04 09:22:14;;;;;;;9.38;2.25;;;21.50;58.80;;;;;;5029237;28;20426;-86
2022/04/04 09:25:05;;;;;;;6.55;2.20;;;21.40;59.10;;;;;;5029890;28;20424;-86
2022/04/04 09:27:36;;;;;;;10.05;1.98;;;21.40;59.40;;;;;;5029878;28;20769;-86
2022/04/04 09:30:08;;;;;;;16.08;2.00;;;21.30;59.60;;;;;;5029462;28;20884;-85
2022/04/04 09:32:41;;;;;;;11.60;2.03;;;21.30;59.70;;;;;;5029151;28;20478;-85
2022/04/04 09:35:13;;;;;;;11.33;1.90;;;21.20;59.90;;;;;;5029838;28;20377;-85
2022/04/04 09:37:45;;;;;;;9.57;1.95;;;21.30;59.80;;;;;;5029724;28;20400;-83
2022/04/04 09:40:27;;;;;;;12.50;2.30;;;20.10;59.40;;;;;;5029397;28;20439;-85
2022/04/04 09:42:54;;;;;;;10.07;2.05;;;21.30;60.60;;;;;;5029125;28;20412;-85
2022/04/04 09:45:24;;;;;;;12.32;1.70;;;21.30;59.90;;;;;;5029915;28;20833;-84
2022/04/04 09:48:04;;;;;;;11.20;1.83;;;21.30;59.80;;;;;;5029379;28;20427;-82
2022/04/04 09:50:50;;;;;;;11.05;1.90;;;21.20;60.00;;;;;;5029500;28;20370;-82
2022/04/04 09:53:22;;;;;;;14.95;1.70;;;21.10;60.30;;;;;;5029980;28;20413;-86
2022/04/04 09:55:52;;;;;;;10.45;1.80;;;21.10;60.60;;;;;;5012070;28;20459;-84
2022/04/04 09:58:21;;;;;;;11.65;1.80;;;21.00;61.40;;;;;;5029733;28;20370;-83
2022/04/04 10:00:49;;;;;;;10.63;2.08;;;21.00;61.10;;;;;;5029409;28;20401;-82
2022/04/04 10:03:18;;;;;;;20.30;2.50;;;20.90;61.60;;;;;;5029541;28;20424;-86
2022/04/04 10:05:52;;;;;;;14.15;2.10;;;20.90;62.30;;;;;;5029676;28;20366;-85
2022/04/04 10:08:20;;;;;;;20.37;2.37;;;20.80;62.20;;;;;;5030069;28;20448;-85
2022/04/04 10:10:48;;;;;;;14.60;2.35;;;20.80;62.60;;;;;;5029181;28;20385;-84
2022/04/04 10:13:16;;;;;;;23.57;3.93;;;20.70;62.90;;;;;;5029673;28;20737;-83
2022/04/04 10:15:44;;;;;;;32.67;4.63;;;20.60;63.60;;;;;;5029919;28;20416;-83
2022/04/04 10:18:11;;;;;;;29.93;5.00;;;20.50;64.30;;;;;;5029454;28;20408;-83
2022/04/04 10:20:38;;;;;;;26.65;4.45;;;20.40;65.40;;;;;;5030029;28;20719;-84
2022/04/04 10:23:10;;;;;;;13.60;2.50;;;20.30;66.10;;;;;;5033521;28;20382;-82
2022/04/04 10:25:37;;;;;;;10.18;2.30;;;20.20;66.50;;;;;;5035272;28;20909;-86
2022/04/04 10:28:05;;;;;;;13.73;2.17;;;20.00;67.40;;;;;;5029424;28;20378;-82
2022/04/04 10:30:39;;;;;;;5.63;2.07;;;19.80;68.10;;;;;;5029095;28;20378;-85
2022/04/04 10:33:18;;;;;;;8.38;2.58;;;19.90;69.10;;;;;;5031407;28;20377;-89
2022/04/04 10:35:59;;;;;;;8.75;2.55;;;19.50;70.30;;;;;;5030301;28;20397;-90
2022/04/04 10:38:35;;;;;;;8.85;2.50;;;19.40;71.70;;;;;;5032452;28;20376;-89
2022/04/04 10:41:06;;;;;;;7.05;2.05;;;19.30;72.30;;;;;;5034179;28;20757;-87
2022/04/04 10:43:44;;;;;;;5.85;2.00;;;19.20;72.20;;;;;;5034712;28;20457;-84
2022/04/04 10:46:13;;;;;;;7.97;1.95;;;19.20;73.90;;;;;;5033679;28;20558;-88
2022/04/04 10:48:53;;;;;;;6.80;2.00;;;19.10;74.00;;;;;;5033315;28;20396;-86
2022/04/04 10:51:23;;;;;;;6.57;2.17;;;18.90;75.00;;;;;;5033509;28;20378;-84
2022/04/04 10:53:55;;;;;;;5.90;2.10;;;18.80;77.40;;;;;;5033712;28;20405;-89
2022/04/04 10:56:25;;;;;;;9.30;2.10;;;18.80;78.50;;;;;;5033659;28;20404;-85
2022/04/04 10:58:54;;;;;;;5.53;2.00;;;18.70;79.90;;;;;;5034214;28;20387;-87
2022/04/04 11:01:22;;;;;;;6.28;2.20;;;18.60;82.20;;;;;;5033565;28;20417;-90
2022/04/04 11:03:52;;;;;;;7.15;1.90;;;18.60;84.40;;;;;;5034413;28;20376;-89
2022/04/04 11:09:32;;;;;;;5.55;2.00;;;18.40;87.80;;;;;;5051789;28;20373;-86
2022/04/04 11:12:15;;;;;;;4.70;1.80;;;20.20;90.60;;;;;;5043450;28;20384;-87
2022/04/04 11:14:43;;;;;;;4.17;1.90;;;18.40;91.20;;;;;;5034447;28;20380;-87
2022/04/04 11:20:33;;;;;;;6.05;1.80;;;18.30;92.70;;;;;;4991331;28;20397;-87
2022/04/04 11:23:04;;;;;;;6.20;1.80;;;18.10;93.20;;;;;;4991432;28;20419;-87
2022/04/04 11:25:34;;;;;;;5.22;1.85;;;18.20;94.10;;;;;;4992364;28;20395;-87
2022/04/04 11:28:02;;;;;;;5.68;1.85;;;18.10;94.90;;;;;;4991618;28;20777;-87
2022/04/04 11:30:29;;;;;;;5.70;1.70;;;18.00;95.50;;;;;;4994516;28;20394;-83
2022/04/04 11:32:59;;;;;;;7.18;1.90;;;18.00;94.40;;;;;;4999645;28;20400;-85
2022/04/04 11:35:31;;;;;;;6.78;1.65;;;18.20;93.80;;;;;;5002653;28;20379;-85
2022/04/04 11:38:12;;;;;;;5.47;1.80;;;18.20;94.00;;;;;;4999857;28;20468;-86
2022/04/04 11:40:44;;;;;;;4.88;1.80;;;18.20;94.20;;;;;;4992580;28;20437;-83
2022/04/04 11:43:13;;;;;;;5.82;1.70;;;18.10;94.20;;;;;;4990180;28;20480;-86
2022/04/04 11:45:41;;;;;;;5.57;1.67;;;18.10;94.60;;;;;;4990889;28;20400;-86
2022/04/04 11:48:14;;;;;;;4.50;1.70;;;18.00;95.00;;;;;;4990801;28;20389;-86
2022/04/04 11:50:42;;;;;;;6.70;1.88;;;17.90;95.50;;;;;;4989747;28;20381;-84
2022/04/04 11:53:11;;;;;;;5.20;1.90;;;17.90;96.30;;;;;;4990558;28;20399;-86
2022/04/04 11:55:41;;;;;;;7.18;1.90;;;17.80;96.60;;;;;;4997285;28;20378;-85
2022/04/04 11:58:20;;;;;;;7.80;2.10;;;17.70;97.40;;;;;;5031773;28;20420;-86
2022/04/04 12:00:55;;;;;;;5.00;1.88;;;17.60;97.70;;;;;;5013593;28;20405;-87
2022/04/04 12:03:25;;;;;;;6.25;1.77;;;17.50;98.70;;;;;;5031482;28;20904;-87
2022/04/04 12:05:52;;;;;;;5.05;2.03;;;17.50;99.40;;;;;;5031202;28;20934;-85
2022/04/04 12:08:25;;;;;;;13.63;2.38;;;17.40;99.90;;;;;;5013642;28;20381;-83
2022/04/04 12:10:52;;;;;;;3.35;1.80;;;17.30;99.90;;;;;;5031169;28;20378;-88
2022/04/04 12:13:24;;;;;;;12.73;2.08;;;17.20;99.90;;;;;;5031548;28;20461;-86
2022/04/04 12:15:53;;;;;;;5.13;1.90;;;17.20;99.90;;;;;;5030920;28;20381;-86
2022/04/04 12:18:23;;;;;;;5.20;1.92;;;17.20;99.90;;;;;;5013287;28;20813;-86
2022/04/04 12:20:53;;;;;;;5.88;1.65;;;17.20;99.90;;;;;;5031806;28;20876;-85
2022/04/04 12:26:11;;;;;;;6.22;1.77;;;17.20;99.90;;;;;;5031239;28;20493;-86
2022/04/04 12:28:43;;;;;;;4.75;1.90;;;17.10;99.90;;;;;;5031505;28;20373;-85
2022/04/04 12:31:11;;;;;;;9.38;2.17;;;17.10;99.90;;;;;;5029128;28;20378;-86
2022/04/04 12:33:39;;;;;;;8.45;2.30;;;17.00;99.90;;;;;;5031244;28;20385;-87
2022/04/04 12:36:06;;;;;;;6.57;1.92;;;17.00;99.90;;;;;;5012867;28;20948;-86
2022/04/04 12:38:40;;;;;;;5.85;2.10;;;17.00;99.90;;;;;;5030575;28;20365;-86
2022/04/04 12:41:17;;;;;;;5.03;2.00;;;16.90;99.90;;;;;;5030455;28;20397;-85
2022/04/04 12:43:58;;;;;;;4.65;1.95;;;16.80;99.90;;;;;;5030388;28;20396;-87
2022/04/04 12:46:27;;;;;;;6.38;2.10;;;16.80;99.90;;;;;;5030460;28;20707;-84
2022/04/04 12:49:07;;;;;;;5.20;1.98;;;16.80;99.90;;;;;;5012459;28;20445;-84
2022/04/04 12:51:34;;;;;;;6.78;2.08;;;16.80;99.90;;;;;;5030344;28;20882;-86
2022/04/04 12:54:02;;;;;;;7.75;2.17;;;16.80;99.90;;;;;;5012452;28;20473;-85
2022/04/04 12:56:33;;;;;;;5.22;2.15;;;16.70;99.90;;;;;;5030643;28;20435;-85
2022/04/04 12:59:11;;;;;;;8.50;2.43;;;16.70;99.90;;;;;;5012698;28;20369;-86
2022/04/04 13:01:39;;;;;;;6.00;2.47;;;16.70;99.90;;;;;;5031250;28;20421;-85
2022/04/04 13:04:21;;;;;;;5.82;2.17;;;16.60;99.90;;;;;;5032423;28;20465;-85
2022/04/04 13:06:48;;;;;;;6.90;2.40;;;16.50;99.90;;;;;;5029765;28;20495;-86